sensor_id;sensor_type;location;lat;lon;timestamp;P1;durP1;ratioP1;P2;durP2;ratioP2
36799;SDS011;22752;51.960;5.886;2023-05-10T00:01:58;36.92;;;26.63;;
36799;SDS011;22752;51.960;5.886;2023-05-10T00:04:23;35.55;;;25.88;;
36799;SDS011;22752;51.960;5.886;2023-05-10T00:06:52;38.47;;;26.52;;
36799;SDS011;22752;51.960;5.886;2023-05-10T00:09:18;36.50;;;27.02;;
36799;SDS011;22752;51.960;5.886;2023-05-10T00:11:44;37.35;;;27.35;;
36799;SDS011;22752;51.960;5.886;2023-05-10T00:14:09;36.70;;;28.30;;
36799;SDS011;22752;51.960;5.886;2023-05-10T00:16:35;35.00;;;26.70;;
36799;SDS011;22752;51.960;5.886;2023-05-10T00:19:00;46.90;;;32.90;;
36799;SDS011;22752;51.960;5.886;2023-05-10T00:21:26;47.53;;;34.92;;
36799;SDS011;22752;51.960;5.886;2023-05-10T00:23:53;51.83;;;35.63;;
36799;SDS011;22752;51.960;5.886;2023-05-10T00:26:19;44.65;;;33.55;;
36799;SDS011;22752;51.960;5.886;2023-05-10T00:28:45;54.72;;;38.15;;
36799;SDS011;22752;51.960;5.886;2023-05-10T00:31:10;53.03;;;37.75;;
36799;SDS011;22752;51.960;5.886;2023-05-10T00:33:36;44.33;;;33.45;;
36799;SDS011;22752;51.960;5.886;2023-05-10T00:36:02;41.03;;;31.15;;
36799;SDS011;22752;51.960;5.886;2023-05-10T00:38:28;50.80;;;36.13;;
36799;SDS011;22752;51.960;5.886;2023-05-10T00:40:53;48.08;;;33.28;;
36799;SDS011;22752;51.960;5.886;2023-05-10T00:43:19;48.65;;;34.60;;
36799;SDS011;22752;51.960;5.886;2023-05-10T00:45:45;40.70;;;30.65;;
36799;SDS011;22752;51.960;5.886;2023-05-10T00:48:11;48.03;;;34.13;;
36799;SDS011;22752;51.960;5.886;2023-05-10T00:50:37;50.78;;;35.45;;
36799;SDS011;22752;51.960;5.886;2023-05-10T00:53:03;50.92;;;35.05;;
36799;SDS011;22752;51.960;5.886;2023-05-10T00:55:29;48.63;;;35.22;;
36799;SDS011;22752;51.960;5.886;2023-05-10T00:57:56;46.05;;;33.17;;
36799;SDS011;22752;51.960;5.886;2023-05-10T01:00:21;49.08;;;33.80;;
36799;SDS011;22752;51.960;5.886;2023-05-10T01:02:47;47.92;;;32.80;;
36799;SDS011;22752;51.960;5.886;2023-05-10T01:05:14;50.78;;;35.80;;
36799;SDS011;22752;51.960;5.886;2023-05-10T01:07:40;50.47;;;34.25;;
36799;SDS011;22752;51.960;5.886;2023-05-10T01:10:06;51.15;;;36.10;;
36799;SDS011;22752;51.960;5.886;2023-05-10T01:12:34;49.92;;;35.80;;
36799;SDS011;22752;51.960;5.886;2023-05-10T01:15:05;55.08;;;37.70;;
36799;SDS011;22752;51.960;5.886;2023-05-10T01:17:33;55.28;;;36.05;;
36799;SDS011;22752;51.960;5.886;2023-05-10T01:20:00;51.22;;;36.05;;
36799;SDS011;22752;51.960;5.886;2023-05-10T01:36:08;71.78;;;40.75;;
36799;SDS011;22752;51.960;5.886;2023-05-10T01:38:47;52.58;;;35.00;;
36799;SDS011;22752;51.960;5.886;2023-05-10T01:41:20;61.88;;;38.35;;
36799;SDS011;22752;51.960;5.886;2023-05-10T01:44:23;58.80;;;38.53;;
36799;SDS011;22752;51.960;5.886;2023-05-10T01:46:58;54.95;;;37.17;;
36799;SDS011;22752;51.960;5.886;2023-05-10T01:49:32;58.78;;;38.08;;
36799;SDS011;22752;51.960;5.886;2023-05-10T01:52:14;71.70;;;41.08;;
36799;SDS011;22752;51.960;5.886;2023-05-10T01:54:42;53.78;;;35.15;;
36799;SDS011;22752;51.960;5.886;2023-05-10T01:59:42;58.90;;;36.40;;
36799;SDS011;22752;51.960;5.886;2023-05-10T02:02:10;52.63;;;35.17;;
36799;SDS011;22752;51.960;5.886;2023-05-10T02:04:37;58.58;;;34.97;;
36799;SDS011;22752;51.960;5.886;2023-05-10T02:07:04;64.15;;;36.13;;
36799;SDS011;22752;51.960;5.886;2023-05-10T02:09:32;50.90;;;32.63;;
36799;SDS011;22752;51.960;5.886;2023-05-10T02:11:59;65.82;;;36.00;;
36799;SDS011;22752;51.960;5.886;2023-05-10T02:14:30;63.58;;;37.80;;
36799;SDS011;22752;51.960;5.886;2023-05-10T02:16:59;58.00;;;34.67;;
36799;SDS011;22752;51.960;5.886;2023-05-10T02:19:26;68.32;;;34.33;;
36799;SDS011;22752;51.960;5.886;2023-05-10T02:21:55;52.83;;;31.60;;
36799;SDS011;22752;51.960;5.886;2023-05-10T02:24:22;54.83;;;32.88;;
36799;SDS011;22752;51.960;5.886;2023-05-10T02:26:50;59.38;;;35.08;;
36799;SDS011;22752;51.960;5.886;2023-05-10T02:29:18;52.80;;;32.28;;
36799;SDS011;22752;51.960;5.886;2023-05-10T02:31:45;54.30;;;31.80;;
36799;SDS011;22752;51.960;5.886;2023-05-10T02:34:11;50.55;;;30.40;;
36799;SDS011;22752;51.960;5.886;2023-05-10T02:36:38;59.50;;;35.33;;
36799;SDS011;22752;51.960;5.886;2023-05-10T02:39:06;62.28;;;36.58;;
36799;SDS011;22752;51.960;5.886;2023-05-10T02:41:37;61.22;;;35.72;;
36799;SDS011;22752;51.960;5.886;2023-05-10T02:44:03;86.63;;;41.60;;
36799;SDS011;22752;51.960;5.886;2023-05-10T02:46:33;71.28;;;38.83;;
36799;SDS011;22752;51.960;5.886;2023-05-10T02:48:59;72.65;;;39.95;;
36799;SDS011;22752;51.960;5.886;2023-05-10T02:51:25;73.93;;;41.40;;
36799;SDS011;22752;51.960;5.886;2023-05-10T02:54:01;70.95;;;42.30;;
36799;SDS011;22752;51.960;5.886;2023-05-10T02:56:34;79.93;;;44.33;;
36799;SDS011;22752;51.960;5.886;2023-05-10T02:59:04;71.07;;;42.92;;
36799;SDS011;22752;51.960;5.886;2023-05-10T03:01:30;70.97;;;43.65;;
36799;SDS011;22752;51.960;5.886;2023-05-10T03:03:55;81.97;;;43.60;;
36799;SDS011;22752;51.960;5.886;2023-05-10T03:06:21;74.15;;;42.65;;
36799;SDS011;22752;51.960;5.886;2023-05-10T03:08:47;86.90;;;47.20;;
36799;SDS011;22752;51.960;5.886;2023-05-10T03:11:24;85.53;;;49.03;;
36799;SDS011;22752;51.960;5.886;2023-05-10T03:14:21;79.30;;;45.65;;
36799;SDS011;22752;51.960;5.886;2023-05-10T03:17:10;72.82;;;43.50;;
36799;SDS011;22752;51.960;5.886;2023-05-10T03:22:10;77.63;;;45.50;;
36799;SDS011;22752;51.960;5.886;2023-05-10T03:24:38;79.22;;;46.13;;
36799;SDS011;22752;51.960;5.886;2023-05-10T03:27:06;78.65;;;47.00;;
36799;SDS011;22752;51.960;5.886;2023-05-10T03:29:32;75.65;;;44.80;;
36799;SDS011;22752;51.960;5.886;2023-05-10T03:31:58;74.07;;;43.67;;
36799;SDS011;22752;51.960;5.886;2023-05-10T03:34:25;64.03;;;40.45;;
36799;SDS011;22752;51.960;5.886;2023-05-10T03:36:51;67.70;;;41.25;;
36799;SDS011;22752;51.960;5.886;2023-05-10T03:39:17;63.70;;;39.22;;
36799;SDS011;22752;51.960;5.886;2023-05-10T03:41:42;77.82;;;44.67;;
36799;SDS011;22752;51.960;5.886;2023-05-10T03:44:08;81.60;;;47.15;;
36799;SDS011;22752;51.960;5.886;2023-05-10T03:46:34;67.82;;;42.92;;
36799;SDS011;22752;51.960;5.886;2023-05-10T03:48:59;77.45;;;45.17;;
36799;SDS011;22752;51.960;5.886;2023-05-10T03:51:25;75.65;;;45.78;;
36799;SDS011;22752;51.960;5.886;2023-05-10T03:53:53;79.78;;;46.75;;
36799;SDS011;22752;51.960;5.886;2023-05-10T03:56:22;92.60;;;51.30;;
36799;SDS011;22752;51.960;5.886;2023-05-10T03:58:47;90.97;;;50.85;;
36799;SDS011;22752;51.960;5.886;2023-05-10T04:01:13;78.25;;;47.63;;
36799;SDS011;22752;51.960;5.886;2023-05-10T04:03:38;81.88;;;48.30;;
36799;SDS011;22752;51.960;5.886;2023-05-10T04:06:04;72.88;;;45.38;;
36799;SDS011;22752;51.960;5.886;2023-05-10T04:08:30;76.70;;;46.22;;
36799;SDS011;22752;51.960;5.886;2023-05-10T04:11:09;67.35;;;43.72;;
36799;SDS011;22752;51.960;5.886;2023-05-10T04:13:36;75.03;;;44.78;;
36799;SDS011;22752;51.960;5.886;2023-05-10T04:16:04;75.80;;;44.75;;
36799;SDS011;22752;51.960;5.886;2023-05-10T04:18:30;76.75;;;45.03;;
36799;SDS011;22752;51.960;5.886;2023-05-10T04:20:56;72.32;;;43.13;;
36799;SDS011;22752;51.960;5.886;2023-05-10T04:23:22;63.60;;;39.00;;
36799;SDS011;22752;51.960;5.886;2023-05-10T04:25:47;60.33;;;37.83;;
36799;SDS011;22752;51.960;5.886;2023-05-10T04:28:13;65.55;;;38.95;;
36799;SDS011;22752;51.960;5.886;2023-05-10T04:30:38;56.90;;;36.13;;
36799;SDS011;22752;51.960;5.886;2023-05-10T04:33:05;52.50;;;34.25;;
36799;SDS011;22752;51.960;5.886;2023-05-10T04:35:31;64.88;;;38.33;;
36799;SDS011;22752;51.960;5.886;2023-05-10T04:37:56;62.72;;;37.17;;
36799;SDS011;22752;51.960;5.886;2023-05-10T04:40:22;60.88;;;37.05;;
36799;SDS011;22752;51.960;5.886;2023-05-10T04:42:47;56.75;;;36.35;;
36799;SDS011;22752;51.960;5.886;2023-05-10T04:45:13;73.63;;;40.53;;
36799;SDS011;22752;51.960;5.886;2023-05-10T04:47:41;62.58;;;36.25;;
36799;SDS011;22752;51.960;5.886;2023-05-10T04:50:07;63.15;;;36.65;;
36799;SDS011;22752;51.960;5.886;2023-05-10T04:52:33;57.45;;;33.70;;
36799;SDS011;22752;51.960;5.886;2023-05-10T04:54:59;57.25;;;35.65;;
36799;SDS011;22752;51.960;5.886;2023-05-10T04:57:24;61.88;;;37.95;;
36799;SDS011;22752;51.960;5.886;2023-05-10T04:59:50;63.90;;;37.53;;
36799;SDS011;22752;51.960;5.886;2023-05-10T05:02:16;61.47;;;37.53;;
36799;SDS011;22752;51.960;5.886;2023-05-10T05:04:42;70.53;;;38.83;;
36799;SDS011;22752;51.960;5.886;2023-05-10T05:07:07;65.07;;;38.90;;
36799;SDS011;22752;51.960;5.886;2023-05-10T05:09:33;63.28;;;36.70;;
36799;SDS011;22752;51.960;5.886;2023-05-10T05:11:58;55.92;;;33.90;;
36799;SDS011;22752;51.960;5.886;2023-05-10T05:14:24;52.28;;;33.20;;
36799;SDS011;22752;51.960;5.886;2023-05-10T05:16:52;54.17;;;33.60;;
36799;SDS011;22752;51.960;5.886;2023-05-10T05:19:18;64.70;;;36.22;;
36799;SDS011;22752;51.960;5.886;2023-05-10T05:21:44;54.50;;;33.33;;
36799;SDS011;22752;51.960;5.886;2023-05-10T05:24:10;56.03;;;33.33;;
36799;SDS011;22752;51.960;5.886;2023-05-10T05:26:37;60.35;;;34.92;;
36799;SDS011;22752;51.960;5.886;2023-05-10T05:29:03;57.00;;;33.38;;
36799;SDS011;22752;51.960;5.886;2023-05-10T05:31:29;55.60;;;33.78;;
36799;SDS011;22752;51.960;5.886;2023-05-10T05:33:55;51.00;;;31.30;;
36799;SDS011;22752;51.960;5.886;2023-05-10T05:36:21;54.58;;;32.00;;
36799;SDS011;22752;51.960;5.886;2023-05-10T05:38:46;61.15;;;36.58;;
36799;SDS011;22752;51.960;5.886;2023-05-10T05:41:12;61.20;;;36.17;;
36799;SDS011;22752;51.960;5.886;2023-05-10T05:43:38;59.72;;;34.90;;
36799;SDS011;22752;51.960;5.886;2023-05-10T05:46:04;59.80;;;34.95;;
36799;SDS011;22752;51.960;5.886;2023-05-10T05:48:30;64.07;;;36.75;;
36799;SDS011;22752;51.960;5.886;2023-05-10T05:50:56;66.10;;;36.15;;
36799;SDS011;22752;51.960;5.886;2023-05-10T05:53:22;64.72;;;35.40;;
36799;SDS011;22752;51.960;5.886;2023-05-10T05:55:51;55.55;;;32.80;;
36799;SDS011;22752;51.960;5.886;2023-05-10T05:58:19;62.75;;;36.38;;
36799;SDS011;22752;51.960;5.886;2023-05-10T06:00:44;59.90;;;33.67;;
36799;SDS011;22752;51.960;5.886;2023-05-10T06:03:10;55.33;;;33.45;;
36799;SDS011;22752;51.960;5.886;2023-05-10T06:05:36;59.75;;;33.70;;
36799;SDS011;22752;51.960;5.886;2023-05-10T06:08:01;63.45;;;36.03;;
36799;SDS011;22752;51.960;5.886;2023-05-10T06:10:27;69.68;;;39.08;;
36799;SDS011;22752;51.960;5.886;2023-05-10T06:12:52;60.83;;;34.90;;
36799;SDS011;22752;51.960;5.886;2023-05-10T06:15:18;59.30;;;32.78;;
36799;SDS011;22752;51.960;5.886;2023-05-10T06:17:44;65.68;;;36.65;;
36799;SDS011;22752;51.960;5.886;2023-05-10T06:20:12;63.22;;;37.53;;
36799;SDS011;22752;51.960;5.886;2023-05-10T06:22:38;70.85;;;38.90;;
36799;SDS011;22752;51.960;5.886;2023-05-10T06:25:03;71.88;;;38.03;;
36799;SDS011;22752;51.960;5.886;2023-05-10T06:27:29;62.65;;;35.65;;
36799;SDS011;22752;51.960;5.886;2023-05-10T06:29:55;57.58;;;34.45;;
36799;SDS011;22752;51.960;5.886;2023-05-10T06:32:21;59.63;;;33.40;;
36799;SDS011;22752;51.960;5.886;2023-05-10T06:34:47;59.67;;;34.03;;
36799;SDS011;22752;51.960;5.886;2023-05-10T06:37:12;65.35;;;36.47;;
36799;SDS011;22752;51.960;5.886;2023-05-10T06:39:38;61.22;;;33.97;;
36799;SDS011;22752;51.960;5.886;2023-05-10T06:42:03;62.95;;;35.58;;
36799;SDS011;22752;51.960;5.886;2023-05-10T06:44:30;66.03;;;36.58;;
36799;SDS011;22752;51.960;5.886;2023-05-10T06:46:55;66.25;;;37.15;;
36799;SDS011;22752;51.960;5.886;2023-05-10T06:49:21;64.20;;;36.47;;
36799;SDS011;22752;51.960;5.886;2023-05-10T06:51:47;73.88;;;38.65;;
36799;SDS011;22752;51.960;5.886;2023-05-10T06:54:13;73.75;;;40.13;;
36799;SDS011;22752;51.960;5.886;2023-05-10T06:56:39;67.57;;;37.10;;
36799;SDS011;22752;51.960;5.886;2023-05-10T06:59:04;63.22;;;36.90;;
36799;SDS011;22752;51.960;5.886;2023-05-10T07:01:30;63.55;;;38.72;;
36799;SDS011;22752;51.960;5.886;2023-05-10T07:03:56;67.65;;;39.15;;
36799;SDS011;22752;51.960;5.886;2023-05-10T07:06:21;62.90;;;38.20;;
36799;SDS011;22752;51.960;5.886;2023-05-10T07:08:47;68.63;;;39.47;;
36799;SDS011;22752;51.960;5.886;2023-05-10T07:11:13;68.90;;;41.55;;
36799;SDS011;22752;51.960;5.886;2023-05-10T07:13:38;66.93;;;39.67;;
36799;SDS011;22752;51.960;5.886;2023-05-10T07:16:06;59.03;;;35.95;;
36799;SDS011;22752;51.960;5.886;2023-05-10T07:18:32;60.35;;;39.08;;
36799;SDS011;22752;51.960;5.886;2023-05-10T07:20:58;67.97;;;40.55;;
36799;SDS011;22752;51.960;5.886;2023-05-10T07:23:24;80.13;;;44.10;;
36799;SDS011;22752;51.960;5.886;2023-05-10T07:25:50;86.28;;;44.90;;
36799;SDS011;22752;51.960;5.886;2023-05-10T07:28:17;81.00;;;46.50;;
36799;SDS011;22752;51.960;5.886;2023-05-10T07:30:43;92.95;;;47.83;;
36799;SDS011;22752;51.960;5.886;2023-05-10T07:33:09;94.60;;;48.40;;
36799;SDS011;22752;51.960;5.886;2023-05-10T07:35:36;102.38;;;50.95;;
36799;SDS011;22752;51.960;5.886;2023-05-10T07:38:02;84.18;;;44.97;;
36799;SDS011;22752;51.960;5.886;2023-05-10T07:40:28;76.50;;;42.92;;
36799;SDS011;22752;51.960;5.886;2023-05-10T07:42:54;74.68;;;40.83;;
36799;SDS011;22752;51.960;5.886;2023-05-10T07:45:19;72.75;;;41.00;;
36799;SDS011;22752;51.960;5.886;2023-05-10T07:47:45;76.13;;;41.13;;
36799;SDS011;22752;51.960;5.886;2023-05-10T07:50:11;69.97;;;39.13;;
36799;SDS011;22752;51.960;5.886;2023-05-10T07:52:36;67.63;;;39.40;;
36799;SDS011;22752;51.960;5.886;2023-05-10T07:55:02;67.43;;;39.95;;
36799;SDS011;22752;51.960;5.886;2023-05-10T07:57:28;66.55;;;37.47;;
36799;SDS011;22752;51.960;5.886;2023-05-10T07:59:53;72.93;;;38.03;;
36799;SDS011;22752;51.960;5.886;2023-05-10T08:02:19;63.20;;;35.65;;
36799;SDS011;22752;51.960;5.886;2023-05-10T08:04:45;71.40;;;39.08;;
36799;SDS011;22752;51.960;5.886;2023-05-10T08:07:11;63.70;;;37.63;;
36799;SDS011;22752;51.960;5.886;2023-05-10T08:09:36;58.55;;;34.28;;
36799;SDS011;22752;51.960;5.886;2023-05-10T08:12:02;56.85;;;35.90;;
36799;SDS011;22752;51.960;5.886;2023-05-10T08:14:30;66.13;;;37.38;;
36799;SDS011;22752;51.960;5.886;2023-05-10T08:16:56;62.13;;;36.08;;
36799;SDS011;22752;51.960;5.886;2023-05-10T08:19:22;60.03;;;35.72;;
36799;SDS011;22752;51.960;5.886;2023-05-10T08:21:48;57.35;;;34.22;;
36799;SDS011;22752;51.960;5.886;2023-05-10T08:24:14;55.67;;;34.10;;
36799;SDS011;22752;51.960;5.886;2023-05-10T08:26:40;51.90;;;33.35;;
36799;SDS011;22752;51.960;5.886;2023-05-10T08:29:06;43.03;;;29.65;;
36799;SDS011;22752;51.960;5.886;2023-05-10T08:31:31;49.13;;;31.13;;
36799;SDS011;22752;51.960;5.886;2023-05-10T08:33:57;40.08;;;28.42;;
36799;SDS011;22752;51.960;5.886;2023-05-10T08:36:23;36.63;;;25.83;;
36799;SDS011;22752;51.960;5.886;2023-05-10T08:38:52;40.60;;;25.63;;
36799;SDS011;22752;51.960;5.886;2023-05-10T08:41:22;39.60;;;25.83;;
36799;SDS011;22752;51.960;5.886;2023-05-10T08:43:54;38.28;;;23.92;;
36799;SDS011;22752;51.960;5.886;2023-05-10T08:46:21;40.60;;;25.55;;
36799;SDS011;22752;51.960;5.886;2023-05-10T08:48:48;32.47;;;22.20;;
36799;SDS011;22752;51.960;5.886;2023-05-10T08:51:19;29.20;;;20.52;;
36799;SDS011;22752;51.960;5.886;2023-05-10T08:53:50;26.75;;;19.15;;
36799;SDS011;22752;51.960;5.886;2023-05-10T08:56:16;27.27;;;19.58;;
36799;SDS011;22752;51.960;5.886;2023-05-10T08:58:42;25.00;;;17.10;;
36799;SDS011;22752;51.960;5.886;2023-05-10T09:01:08;23.40;;;16.67;;
36799;SDS011;22752;51.960;5.886;2023-05-10T09:03:37;24.58;;;16.08;;
36799;SDS011;22752;51.960;5.886;2023-05-10T09:06:03;23.00;;;15.77;;
36799;SDS011;22752;51.960;5.886;2023-05-10T09:08:30;22.60;;;14.65;;
36799;SDS011;22752;51.960;5.886;2023-05-10T09:10:56;17.98;;;12.38;;
36799;SDS011;22752;51.960;5.886;2023-05-10T09:13:22;16.10;;;11.95;;
36799;SDS011;22752;51.960;5.886;2023-05-10T09:15:49;15.05;;;12.15;;
36799;SDS011;22752;51.960;5.886;2023-05-10T09:18:15;16.02;;;10.20;;
36799;SDS011;22752;51.960;5.886;2023-05-10T09:20:40;12.25;;;10.20;;
36799;SDS011;22752;51.960;5.886;2023-05-10T09:23:06;13.07;;;8.82;;
36799;SDS011;22752;51.960;5.886;2023-05-10T09:25:32;12.23;;;8.35;;
36799;SDS011;22752;51.960;5.886;2023-05-10T09:27:58;12.35;;;8.88;;
36799;SDS011;22752;51.960;5.886;2023-05-10T09:30:25;11.95;;;8.00;;
36799;SDS011;22752;51.960;5.886;2023-05-10T09:32:52;11.90;;;8.35;;
36799;SDS011;22752;51.960;5.886;2023-05-10T09:35:20;15.63;;;8.65;;
36799;SDS011;22752;51.960;5.886;2023-05-10T09:37:52;12.10;;;8.23;;
36799;SDS011;22752;51.960;5.886;2023-05-10T09:40:20;11.90;;;8.17;;
36799;SDS011;22752;51.960;5.886;2023-05-10T09:43:29;12.15;;;8.48;;
36799;SDS011;22752;51.960;5.886;2023-05-10T09:45:36;11.73;;;7.97;;
36799;SDS011;22752;51.960;5.886;2023-05-10T09:48:02;25.23;;;7.63;;
36799;SDS011;22752;51.960;5.886;2023-05-10T09:50:29;12.88;;;8.77;;
36799;SDS011;22752;51.960;5.886;2023-05-10T09:52:56;13.95;;;8.88;;
36799;SDS011;22752;51.960;5.886;2023-05-10T09:58:02;10.18;;;8.32;;
36799;SDS011;22752;51.960;5.886;2023-05-10T10:00:33;10.98;;;8.52;;
36799;SDS011;22752;51.960;5.886;2023-05-10T10:03:01;12.07;;;8.68;;
36799;SDS011;22752;51.960;5.886;2023-05-10T10:05:31;9.52;;;7.15;;
36799;SDS011;22752;51.960;5.886;2023-05-10T10:07:59;9.45;;;6.75;;
36799;SDS011;22752;51.960;5.886;2023-05-10T10:10:26;10.02;;;7.15;;
36799;SDS011;22752;51.960;5.886;2023-05-10T10:12:53;8.85;;;6.68;;
36799;SDS011;22752;51.960;5.886;2023-05-10T10:15:23;8.25;;;6.38;;
36799;SDS011;22752;51.960;5.886;2023-05-10T10:17:50;13.35;;;6.85;;
36799;SDS011;22752;51.960;5.886;2023-05-10T10:20:16;10.52;;;6.40;;
36799;SDS011;22752;51.960;5.886;2023-05-10T10:22:43;11.00;;;7.00;;
36799;SDS011;22752;51.960;5.886;2023-05-10T10:25:10;9.60;;;6.63;;
36799;SDS011;22752;51.960;5.886;2023-05-10T10:30:37;12.48;;;8.88;;
36799;SDS011;22752;51.960;5.886;2023-05-10T10:35:57;11.05;;;8.90;;
36799;SDS011;22752;51.960;5.886;2023-05-10T10:38:24;12.55;;;9.25;;
36799;SDS011;22752;51.960;5.886;2023-05-10T10:41:03;10.73;;;8.13;;
36799;SDS011;22752;51.960;5.886;2023-05-10T10:43:34;14.90;;;9.15;;
36799;SDS011;22752;51.960;5.886;2023-05-10T10:46:13;15.05;;;9.25;;
36799;SDS011;22752;51.960;5.886;2023-05-10T10:48:47;11.82;;;8.73;;
36799;SDS011;22752;51.960;5.886;2023-05-10T10:51:14;13.67;;;8.27;;
36799;SDS011;22752;51.960;5.886;2023-05-10T10:53:39;13.90;;;9.98;;
36799;SDS011;22752;51.960;5.886;2023-05-10T10:56:12;12.27;;;9.15;;
36799;SDS011;22752;51.960;5.886;2023-05-10T10:58:40;18.35;;;9.63;;
36799;SDS011;22752;51.960;5.886;2023-05-10T11:01:16;13.57;;;9.93;;
36799;SDS011;22752;51.960;5.886;2023-05-10T11:04:16;11.82;;;8.75;;
36799;SDS011;22752;51.960;5.886;2023-05-10T11:06:44;11.30;;;8.60;;
36799;SDS011;22752;51.960;5.886;2023-05-10T11:09:11;12.20;;;8.52;;
36799;SDS011;22752;51.960;5.886;2023-05-10T11:11:48;15.73;;;9.88;;
36799;SDS011;22752;51.960;5.886;2023-05-10T11:14:17;14.65;;;10.40;;
36799;SDS011;22752;51.960;5.886;2023-05-10T11:16:45;13.55;;;9.63;;
36799;SDS011;22752;51.960;5.886;2023-05-10T11:19:11;11.23;;;9.20;;
36799;SDS011;22752;51.960;5.886;2023-05-10T11:21:48;12.50;;;8.43;;
36799;SDS011;22752;51.960;5.886;2023-05-10T11:24:16;12.23;;;8.55;;
36799;SDS011;22752;51.960;5.886;2023-05-10T11:26:43;12.00;;;8.45;;
36799;SDS011;22752;51.960;5.886;2023-05-10T11:29:09;12.82;;;9.00;;
36799;SDS011;22752;51.960;5.886;2023-05-10T11:31:41;10.05;;;8.13;;
36799;SDS011;22752;51.960;5.886;2023-05-10T11:34:11;14.43;;;8.60;;
36799;SDS011;22752;51.960;5.886;2023-05-10T11:36:50;15.05;;;8.50;;
36799;SDS011;22752;51.960;5.886;2023-05-10T11:39:18;10.18;;;8.85;;
36799;SDS011;22752;51.960;5.886;2023-05-10T11:41:46;13.32;;;8.50;;
36799;SDS011;22752;51.960;5.886;2023-05-10T11:44:14;11.02;;;8.50;;
36799;SDS011;22752;51.960;5.886;2023-05-10T11:46:39;9.35;;;7.35;;
36799;SDS011;22752;51.960;5.886;2023-05-10T11:49:05;9.90;;;7.43;;
36799;SDS011;22752;51.960;5.886;2023-05-10T11:51:33;10.30;;;7.47;;
36799;SDS011;22752;51.960;5.886;2023-05-10T11:54:07;11.63;;;7.60;;
36799;SDS011;22752;51.960;5.886;2023-05-10T11:56:35;12.02;;;8.05;;
36799;SDS011;22752;51.960;5.886;2023-05-10T11:59:02;10.10;;;6.88;;
36799;SDS011;22752;51.960;5.886;2023-05-10T12:01:29;10.93;;;6.43;;
36799;SDS011;22752;51.960;5.886;2023-05-10T12:03:56;9.35;;;5.85;;
36799;SDS011;22752;51.960;5.886;2023-05-10T12:06:26;10.70;;;6.93;;
36799;SDS011;22752;51.960;5.886;2023-05-10T12:08:55;12.82;;;7.60;;
36799;SDS011;22752;51.960;5.886;2023-05-10T12:11:24;8.52;;;6.68;;
36799;SDS011;22752;51.960;5.886;2023-05-10T12:13:51;8.93;;;6.70;;
36799;SDS011;22752;51.960;5.886;2023-05-10T12:16:17;11.23;;;6.18;;
36799;SDS011;22752;51.960;5.886;2023-05-10T12:18:45;8.02;;;5.75;;
36799;SDS011;22752;51.960;5.886;2023-05-10T12:21:14;8.80;;;6.78;;
36799;SDS011;22752;51.960;5.886;2023-05-10T12:23:40;9.50;;;6.00;;
36799;SDS011;22752;51.960;5.886;2023-05-10T12:26:10;7.18;;;5.97;;
36799;SDS011;22752;51.960;5.886;2023-05-10T12:28:36;8.27;;;5.90;;
36799;SDS011;22752;51.960;5.886;2023-05-10T12:31:02;9.52;;;5.75;;
36799;SDS011;22752;51.960;5.886;2023-05-10T12:33:36;5.13;;;4.60;;
36799;SDS011;22752;51.960;5.886;2023-05-10T12:36:09;9.77;;;6.32;;
36799;SDS011;22752;51.960;5.886;2023-05-10T12:38:40;6.38;;;4.80;;
36799;SDS011;22752;51.960;5.886;2023-05-10T12:41:13;5.70;;;4.38;;
36799;SDS011;22752;51.960;5.886;2023-05-10T12:43:40;7.18;;;4.55;;
36799;SDS011;22752;51.960;5.886;2023-05-10T12:48:36;7.50;;;5.68;;
36799;SDS011;22752;51.960;5.886;2023-05-10T12:51:03;10.07;;;5.20;;
36799;SDS011;22752;51.960;5.886;2023-05-10T12:53:29;7.63;;;5.28;;
36799;SDS011;22752;51.960;5.886;2023-05-10T12:55:55;7.53;;;4.55;;
36799;SDS011;22752;51.960;5.886;2023-05-10T12:58:22;6.55;;;4.72;;
36799;SDS011;22752;51.960;5.886;2023-05-10T13:00:48;6.60;;;4.68;;
36799;SDS011;22752;51.960;5.886;2023-05-10T13:03:13;4.95;;;4.45;;
36799;SDS011;22752;51.960;5.886;2023-05-10T13:05:40;6.57;;;4.55;;
36799;SDS011;22752;51.960;5.886;2023-05-10T13:08:06;5.15;;;4.30;;
36799;SDS011;22752;51.960;5.886;2023-05-10T13:10:31;8.90;;;5.20;;
36799;SDS011;22752;51.960;5.886;2023-05-10T13:12:58;8.93;;;5.38;;
36799;SDS011;22752;51.960;5.886;2023-05-10T13:15:24;5.80;;;4.13;;
36799;SDS011;22752;51.960;5.886;2023-05-10T13:17:50;7.70;;;4.80;;
36799;SDS011;22752;51.960;5.886;2023-05-10T13:20:16;6.32;;;4.45;;
36799;SDS011;22752;51.960;5.886;2023-05-10T13:22:42;5.47;;;4.75;;
36799;SDS011;22752;51.960;5.886;2023-05-10T13:25:09;6.05;;;4.43;;
36799;SDS011;22752;51.960;5.886;2023-05-10T13:27:34;5.38;;;4.28;;
36799;SDS011;22752;51.960;5.886;2023-05-10T13:30:01;8.43;;;4.57;;
36799;SDS011;22752;51.960;5.886;2023-05-10T13:32:28;5.30;;;3.80;;
36799;SDS011;22752;51.960;5.886;2023-05-10T13:34:54;5.25;;;4.15;;
36799;SDS011;22752;51.960;5.886;2023-05-10T13:37:20;5.90;;;4.45;;
36799;SDS011;22752;51.960;5.886;2023-05-10T13:39:46;5.07;;;4.32;;
36799;SDS011;22752;51.960;5.886;2023-05-10T13:42:12;9.32;;;6.15;;
36799;SDS011;22752;51.960;5.886;2023-05-10T13:44:38;8.38;;;6.32;;
36799;SDS011;22752;51.960;5.886;2023-05-10T13:47:04;8.50;;;6.55;;
36799;SDS011;22752;51.960;5.886;2023-05-10T13:49:30;6.65;;;5.85;;
36799;SDS011;22752;51.960;5.886;2023-05-10T13:51:55;8.80;;;6.70;;
36799;SDS011;22752;51.960;5.886;2023-05-10T13:54:21;8.13;;;6.53;;
36799;SDS011;22752;51.960;5.886;2023-05-10T13:56:47;7.20;;;6.50;;
36799;SDS011;22752;51.960;5.886;2023-05-10T13:59:13;7.18;;;6.15;;
36799;SDS011;22752;51.960;5.886;2023-05-10T14:01:39;8.95;;;6.70;;
36799;SDS011;22752;51.960;5.886;2023-05-10T14:04:06;8.80;;;7.38;;
36799;SDS011;22752;51.960;5.886;2023-05-10T14:06:35;8.82;;;7.68;;
36799;SDS011;22752;51.960;5.886;2023-05-10T14:09:01;10.02;;;8.18;;
36799;SDS011;22752;51.960;5.886;2023-05-10T14:11:27;10.77;;;8.80;;
36799;SDS011;22752;51.960;5.886;2023-05-10T14:13:53;8.98;;;7.78;;
36799;SDS011;22752;51.960;5.886;2023-05-10T14:16:19;9.77;;;8.60;;
36799;SDS011;22752;51.960;5.886;2023-05-10T14:18:45;9.10;;;8.20;;
36799;SDS011;22752;51.960;5.886;2023-05-10T14:21:11;10.20;;;7.95;;
36799;SDS011;22752;51.960;5.886;2023-05-10T14:23:37;10.43;;;7.88;;
36799;SDS011;22752;51.960;5.886;2023-05-10T14:26:03;10.40;;;7.72;;
36799;SDS011;22752;51.960;5.886;2023-05-10T14:28:28;8.00;;;6.82;;
36799;SDS011;22752;51.960;5.886;2023-05-10T14:30:54;11.25;;;7.47;;
36799;SDS011;22752;51.960;5.886;2023-05-10T14:33:20;7.78;;;6.97;;
36799;SDS011;22752;51.960;5.886;2023-05-10T14:35:46;7.82;;;6.93;;
36799;SDS011;22752;51.960;5.886;2023-05-10T14:38:12;8.57;;;7.43;;
36799;SDS011;22752;51.960;5.886;2023-05-10T14:40:38;8.68;;;7.05;;
36799;SDS011;22752;51.960;5.886;2023-05-10T14:43:03;6.88;;;5.90;;
36799;SDS011;22752;51.960;5.886;2023-05-10T14:45:29;5.90;;;4.65;;
36799;SDS011;22752;51.960;5.886;2023-05-10T14:47:55;4.60;;;3.97;;
36799;SDS011;22752;51.960;5.886;2023-05-10T14:50:21;7.40;;;3.40;;
36799;SDS011;22752;51.960;5.886;2023-05-10T14:52:46;4.32;;;3.88;;
36799;SDS011;22752;51.960;5.886;2023-05-10T14:55:12;5.90;;;4.20;;
36799;SDS011;22752;51.960;5.886;2023-05-10T14:57:38;6.38;;;4.03;;
36799;SDS011;22752;51.960;5.886;2023-05-10T15:00:04;5.97;;;3.58;;